sensor_id;sensor_type;location;lat;lon;timestamp;P1;durP1;ratioP1;P2;durP2;ratioP2
47784;SDS011;35233;55.686;37.848;2023-05-07T00:00:32;5.07;;;3.50;;
47784;SDS011;35233;55.686;37.848;2023-05-07T00:02:59;4.05;;;3.05;;
47784;SDS011;35233;55.686;37.848;2023-05-07T00:05:25;5.50;;;3.30;;
47784;SDS011;35233;55.686;37.848;2023-05-07T00:07:51;4.85;;;3.28;;
47784;SDS011;35233;55.686;37.848;2023-05-07T00:10:17;4.60;;;3.03;;
47784;SDS011;35233;55.686;37.848;2023-05-07T00:12:43;6.32;;;3.45;;
47784;SDS011;35233;55.686;37.848;2023-05-07T00:15:09;4.22;;;2.90;;
47784;SDS011;35233;55.686;37.848;2023-05-07T00:17:35;4.55;;;3.58;;
47784;SDS011;35233;55.686;37.848;2023-05-07T00:20:02;5.88;;;2.95;;
47784;SDS011;35233;55.686;37.848;2023-05-07T00:22:29;5.18;;;3.47;;
47784;SDS011;35233;55.686;37.848;2023-05-07T00:24:56;6.10;;;3.38;;
47784;SDS011;35233;55.686;37.848;2023-05-07T00:27:22;7.00;;;3.55;;
47784;SDS011;35233;55.686;37.848;2023-05-07T00:29:47;4.88;;;3.42;;
47784;SDS011;35233;55.686;37.848;2023-05-07T00:32:13;5.25;;;3.75;;
47784;SDS011;35233;55.686;37.848;2023-05-07T00:34:38;5.40;;;3.80;;
47784;SDS011;35233;55.686;37.848;2023-05-07T00:37:05;6.57;;;3.97;;
47784;SDS011;35233;55.686;37.848;2023-05-07T00:39:32;4.72;;;3.50;;
47784;SDS011;35233;55.686;37.848;2023-05-07T00:41:58;5.13;;;3.45;;
47784;SDS011;35233;55.686;37.848;2023-05-07T00:44:24;5.03;;;3.60;;
47784;SDS011;35233;55.686;37.848;2023-05-07T00:46:50;5.50;;;3.75;;
47784;SDS011;35233;55.686;37.848;2023-05-07T00:49:16;6.93;;;3.72;;
47784;SDS011;35233;55.686;37.848;2023-05-07T00:51:41;6.22;;;4.15;;
47784;SDS011;35233;55.686;37.848;2023-05-07T00:54:10;5.68;;;3.60;;
47784;SDS011;35233;55.686;37.848;2023-05-07T00:56:37;5.18;;;3.70;;
47784;SDS011;35233;55.686;37.848;2023-05-07T00:59:04;6.15;;;3.97;;
47784;SDS011;35233;55.686;37.848;2023-05-07T01:01:31;5.85;;;4.18;;
47784;SDS011;35233;55.686;37.848;2023-05-07T01:03:57;7.00;;;4.05;;
47784;SDS011;35233;55.686;37.848;2023-05-07T01:06:23;6.22;;;4.20;;
47784;SDS011;35233;55.686;37.848;2023-05-07T01:08:50;6.47;;;4.22;;
47784;SDS011;35233;55.686;37.848;2023-05-07T01:11:18;5.70;;;4.25;;
47784;SDS011;35233;55.686;37.848;2023-05-07T01:13:45;6.78;;;4.13;;
47784;SDS011;35233;55.686;37.848;2023-05-07T01:16:12;7.15;;;4.35;;
47784;SDS011;35233;55.686;37.848;2023-05-07T01:18:37;5.68;;;3.85;;
47784;SDS011;35233;55.686;37.848;2023-05-07T01:21:03;5.40;;;3.45;;
47784;SDS011;35233;55.686;37.848;2023-05-07T01:23:30;7.03;;;3.97;;
47784;SDS011;35233;55.686;37.848;2023-05-07T01:25:55;5.13;;;3.67;;
47784;SDS011;35233;55.686;37.848;2023-05-07T01:28:21;5.63;;;3.65;;
47784;SDS011;35233;55.686;37.848;2023-05-07T01:30:48;5.53;;;3.53;;
47784;SDS011;35233;55.686;37.848;2023-05-07T01:33:19;5.13;;;3.50;;
47784;SDS011;35233;55.686;37.848;2023-05-07T01:35:50;6.60;;;3.88;;
47784;SDS011;35233;55.686;37.848;2023-05-07T01:38:18;5.13;;;3.90;;
47784;SDS011;35233;55.686;37.848;2023-05-07T01:40:45;5.47;;;3.63;;
47784;SDS011;35233;55.686;37.848;2023-05-07T01:43:11;6.40;;;3.50;;
47784;SDS011;35233;55.686;37.848;2023-05-07T01:45:37;7.32;;;4.20;;
47784;SDS011;35233;55.686;37.848;2023-05-07T01:48:03;4.40;;;3.58;;
47784;SDS011;35233;55.686;37.848;2023-05-07T01:50:29;6.22;;;3.70;;
47784;SDS011;35233;55.686;37.848;2023-05-07T01:52:56;5.47;;;3.40;;
47784;SDS011;35233;55.686;37.848;2023-05-07T01:55:22;5.45;;;3.50;;
47784;SDS011;35233;55.686;37.848;2023-05-07T01:57:48;5.70;;;3.83;;
47784;SDS011;35233;55.686;37.848;2023-05-07T02:00:14;6.03;;;3.55;;
47784;SDS011;35233;55.686;37.848;2023-05-07T02:02:39;6.20;;;3.65;;
47784;SDS011;35233;55.686;37.848;2023-05-07T02:05:05;6.38;;;3.60;;
47784;SDS011;35233;55.686;37.848;2023-05-07T02:07:31;6.90;;;3.60;;
47784;SDS011;35233;55.686;37.848;2023-05-07T02:09:56;5.60;;;3.40;;
47784;SDS011;35233;55.686;37.848;2023-05-07T02:12:22;5.20;;;3.50;;
47784;SDS011;35233;55.686;37.848;2023-05-07T02:14:48;5.82;;;3.80;;
47784;SDS011;35233;55.686;37.848;2023-05-07T02:17:13;5.05;;;3.60;;
47784;SDS011;35233;55.686;37.848;2023-05-07T02:19:39;5.25;;;3.58;;
47784;SDS011;35233;55.686;37.848;2023-05-07T02:22:04;5.63;;;3.60;;
47784;SDS011;35233;55.686;37.848;2023-05-07T02:24:30;5.20;;;3.78;;
47784;SDS011;35233;55.686;37.848;2023-05-07T02:26:55;5.53;;;3.67;;
47784;SDS011;35233;55.686;37.848;2023-05-07T02:29:21;5.55;;;3.67;;
47784;SDS011;35233;55.686;37.848;2023-05-07T02:31:46;6.68;;;3.60;;
47784;SDS011;35233;55.686;37.848;2023-05-07T02:34:15;6.55;;;3.60;;
47784;SDS011;35233;55.686;37.848;2023-05-07T02:36:42;6.18;;;3.85;;
47784;SDS011;35233;55.686;37.848;2023-05-07T02:39:07;4.72;;;3.45;;
47784;SDS011;35233;55.686;37.848;2023-05-07T02:41:33;5.07;;;3.72;;
47784;SDS011;35233;55.686;37.848;2023-05-07T02:43:58;5.00;;;3.60;;
47784;SDS011;35233;55.686;37.848;2023-05-07T02:46:24;5.32;;;3.40;;
47784;SDS011;35233;55.686;37.848;2023-05-07T02:48:49;5.75;;;3.90;;
47784;SDS011;35233;55.686;37.848;2023-05-07T02:51:16;5.20;;;3.65;;
47784;SDS011;35233;55.686;37.848;2023-05-07T02:53:45;5.85;;;3.65;;
47784;SDS011;35233;55.686;37.848;2023-05-07T02:56:11;5.20;;;3.60;;
47784;SDS011;35233;55.686;37.848;2023-05-07T02:58:36;5.68;;;3.60;;
47784;SDS011;35233;55.686;37.848;2023-05-07T03:01:01;5.53;;;3.90;;
47784;SDS011;35233;55.686;37.848;2023-05-07T03:03:27;5.20;;;3.80;;
47784;SDS011;35233;55.686;37.848;2023-05-07T03:05:52;5.63;;;4.20;;
47784;SDS011;35233;55.686;37.848;2023-05-07T03:08:18;7.50;;;3.67;;
47784;SDS011;35233;55.686;37.848;2023-05-07T03:10:43;6.38;;;3.90;;
47784;SDS011;35233;55.686;37.848;2023-05-07T03:13:09;6.75;;;3.80;;
47784;SDS011;35233;55.686;37.848;2023-05-07T03:15:34;5.22;;;3.50;;
47784;SDS011;35233;55.686;37.848;2023-05-07T03:18:00;5.72;;;3.65;;
47784;SDS011;35233;55.686;37.848;2023-05-07T03:20:25;5.30;;;3.78;;
47784;SDS011;35233;55.686;37.848;2023-05-07T03:22:51;5.00;;;3.35;;
47784;SDS011;35233;55.686;37.848;2023-05-07T03:25:16;4.90;;;3.38;;
47784;SDS011;35233;55.686;37.848;2023-05-07T03:27:42;5.65;;;3.55;;
47784;SDS011;35233;55.686;37.848;2023-05-07T03:30:08;6.43;;;3.75;;
47784;SDS011;35233;55.686;37.848;2023-05-07T03:32:34;5.10;;;3.80;;
47784;SDS011;35233;55.686;37.848;2023-05-07T03:35:00;4.80;;;3.35;;
47784;SDS011;35233;55.686;37.848;2023-05-07T03:37:26;4.97;;;3.50;;
47784;SDS011;35233;55.686;37.848;2023-05-07T03:39:51;6.25;;;3.33;;
47784;SDS011;35233;55.686;37.848;2023-05-07T03:42:17;5.70;;;3.55;;
47784;SDS011;35233;55.686;37.848;2023-05-07T03:44:42;5.25;;;3.95;;
47784;SDS011;35233;55.686;37.848;2023-05-07T03:47:08;5.20;;;3.30;;
47784;SDS011;35233;55.686;37.848;2023-05-07T03:49:35;4.72;;;3.22;;
47784;SDS011;35233;55.686;37.848;2023-05-07T03:52:00;4.82;;;3.40;;
47784;SDS011;35233;55.686;37.848;2023-05-07T03:54:26;4.43;;;3.30;;
47784;SDS011;35233;55.686;37.848;2023-05-07T03:56:51;5.53;;;3.40;;
47784;SDS011;35233;55.686;37.848;2023-05-07T03:59:17;4.50;;;3.22;;
47784;SDS011;35233;55.686;37.848;2023-05-07T04:01:42;3.75;;;2.83;;
47784;SDS011;35233;55.686;37.848;2023-05-07T04:04:07;5.72;;;3.05;;
47784;SDS011;35233;55.686;37.848;2023-05-07T04:06:33;4.00;;;3.03;;
47784;SDS011;35233;55.686;37.848;2023-05-07T04:08:58;5.20;;;3.05;;
47784;SDS011;35233;55.686;37.848;2023-05-07T04:11:24;4.32;;;3.10;;
47784;SDS011;35233;55.686;37.848;2023-05-07T04:13:50;4.38;;;3.15;;
47784;SDS011;35233;55.686;37.848;2023-05-07T04:16:15;4.75;;;3.10;;
47784;SDS011;35233;55.686;37.848;2023-05-07T04:18:41;3.90;;;2.90;;
47784;SDS011;35233;55.686;37.848;2023-05-07T04:21:13;3.60;;;2.67;;
47784;SDS011;35233;55.686;37.848;2023-05-07T04:23:41;3.80;;;2.88;;
47784;SDS011;35233;55.686;37.848;2023-05-07T04:26:07;3.85;;;2.60;;
47784;SDS011;35233;55.686;37.848;2023-05-07T04:28:33;4.53;;;3.15;;
47784;SDS011;35233;55.686;37.848;2023-05-07T04:30:59;3.42;;;2.60;;
47784;SDS011;35233;55.686;37.848;2023-05-07T04:33:25;3.15;;;2.67;;
47784;SDS011;35233;55.686;37.848;2023-05-07T04:35:51;3.28;;;2.50;;
47784;SDS011;35233;55.686;37.848;2023-05-07T04:38:16;5.30;;;2.72;;
47784;SDS011;35233;55.686;37.848;2023-05-07T04:40:43;4.53;;;2.80;;
47784;SDS011;35233;55.686;37.848;2023-05-07T04:43:09;3.95;;;3.00;;
47784;SDS011;35233;55.686;37.848;2023-05-07T04:45:37;3.45;;;2.60;;
47784;SDS011;35233;55.686;37.848;2023-05-07T04:48:05;3.65;;;2.40;;
47784;SDS011;35233;55.686;37.848;2023-05-07T04:50:30;3.25;;;2.50;;
47784;SDS011;35233;55.686;37.848;2023-05-07T04:52:56;4.15;;;3.00;;
47784;SDS011;35233;55.686;37.848;2023-05-07T04:55:21;2.88;;;2.40;;
47784;SDS011;35233;55.686;37.848;2023-05-07T04:57:47;3.33;;;2.58;;
47784;SDS011;35233;55.686;37.848;2023-05-07T05:00:12;3.13;;;2.30;;
47784;SDS011;35233;55.686;37.848;2023-05-07T05:02:39;3.65;;;2.42;;
47784;SDS011;35233;55.686;37.848;2023-05-07T05:05:06;4.00;;;2.40;;
47784;SDS011;35233;55.686;37.848;2023-05-07T05:07:32;3.90;;;2.80;;
47784;SDS011;35233;55.686;37.848;2023-05-07T05:09:57;3.70;;;2.50;;
47784;SDS011;35233;55.686;37.848;2023-05-07T05:12:23;2.92;;;2.30;;
47784;SDS011;35233;55.686;37.848;2023-05-07T05:14:48;5.03;;;2.33;;
47784;SDS011;35233;55.686;37.848;2023-05-07T05:17:14;4.97;;;2.90;;
47784;SDS011;35233;55.686;37.848;2023-05-07T05:19:39;3.75;;;2.47;;
47784;SDS011;35233;55.686;37.848;2023-05-07T05:22:05;3.10;;;2.40;;
47784;SDS011;35233;55.686;37.848;2023-05-07T05:24:31;2.88;;;2.47;;
47784;SDS011;35233;55.686;37.848;2023-05-07T05:27:15;5.53;;;2.40;;
47784;SDS011;35233;55.686;37.848;2023-05-07T05:29:40;3.05;;;2.63;;
47784;SDS011;35233;55.686;37.848;2023-05-07T05:32:06;2.97;;;2.35;;
47784;SDS011;35233;55.686;37.848;2023-05-07T05:34:31;3.70;;;2.55;;
47784;SDS011;35233;55.686;37.848;2023-05-07T05:36:58;2.85;;;2.10;;
47784;SDS011;35233;55.686;37.848;2023-05-07T05:39:24;3.38;;;2.40;;
47784;SDS011;35233;55.686;37.848;2023-05-07T05:41:50;3.30;;;2.58;;
47784;SDS011;35233;55.686;37.848;2023-05-07T05:44:15;2.90;;;2.20;;
47784;SDS011;35233;55.686;37.848;2023-05-07T05:46:40;3.35;;;2.50;;
47784;SDS011;35233;55.686;37.848;2023-05-07T05:49:06;3.08;;;2.40;;
47784;SDS011;35233;55.686;37.848;2023-05-07T05:51:32;3.17;;;2.65;;
47784;SDS011;35233;55.686;37.848;2023-05-07T05:53:57;2.80;;;2.33;;
47784;SDS011;35233;55.686;37.848;2023-05-07T05:56:23;2.92;;;2.38;;
47784;SDS011;35233;55.686;37.848;2023-05-07T05:58:48;3.35;;;2.50;;
47784;SDS011;35233;55.686;37.848;2023-05-07T06:01:14;3.22;;;2.55;;
47784;SDS011;35233;55.686;37.848;2023-05-07T06:03:39;2.97;;;2.38;;
47784;SDS011;35233;55.686;37.848;2023-05-07T06:06:05;3.05;;;2.55;;
47784;SDS011;35233;55.686;37.848;2023-05-07T06:08:30;3.25;;;2.40;;
47784;SDS011;35233;55.686;37.848;2023-05-07T06:10:56;4.50;;;2.50;;
47784;SDS011;35233;55.686;37.848;2023-05-07T06:13:22;2.90;;;2.50;;
47784;SDS011;35233;55.686;37.848;2023-05-07T06:15:48;4.18;;;2.70;;
47784;SDS011;35233;55.686;37.848;2023-05-07T06:18:14;2.90;;;2.50;;
47784;SDS011;35233;55.686;37.848;2023-05-07T06:20:39;2.65;;;2.25;;
47784;SDS011;35233;55.686;37.848;2023-05-07T06:23:05;5.18;;;3.20;;
47784;SDS011;35233;55.686;37.848;2023-05-07T06:25:31;3.17;;;2.38;;
47784;SDS011;35233;55.686;37.848;2023-05-07T06:27:57;3.28;;;2.40;;
47784;SDS011;35233;55.686;37.848;2023-05-07T06:30:22;2.60;;;2.20;;
47784;SDS011;35233;55.686;37.848;2023-05-07T06:32:48;3.38;;;2.33;;
47784;SDS011;35233;55.686;37.848;2023-05-07T06:35:13;3.05;;;2.40;;
47784;SDS011;35233;55.686;37.848;2023-05-07T06:37:39;3.15;;;2.55;;
47784;SDS011;35233;55.686;37.848;2023-05-07T06:40:07;2.60;;;2.17;;
47784;SDS011;35233;55.686;37.848;2023-05-07T06:42:33;2.47;;;2.10;;
47784;SDS011;35233;55.686;37.848;2023-05-07T06:45:00;2.88;;;2.33;;
47784;SDS011;35233;55.686;37.848;2023-05-07T06:47:26;3.35;;;2.40;;
47784;SDS011;35233;55.686;37.848;2023-05-07T06:49:51;3.30;;;2.30;;
47784;SDS011;35233;55.686;37.848;2023-05-07T06:52:17;3.08;;;2.45;;
47784;SDS011;35233;55.686;37.848;2023-05-07T06:54:42;2.45;;;2.20;;
47784;SDS011;35233;55.686;37.848;2023-05-07T06:57:08;2.95;;;2.47;;
47784;SDS011;35233;55.686;37.848;2023-05-07T06:59:33;2.88;;;2.30;;
47784;SDS011;35233;55.686;37.848;2023-05-07T07:01:59;2.92;;;2.28;;
47784;SDS011;35233;55.686;37.848;2023-05-07T07:04:24;3.88;;;2.42;;
47784;SDS011;35233;55.686;37.848;2023-05-07T07:06:52;2.78;;;2.40;;
47784;SDS011;35233;55.686;37.848;2023-05-07T07:09:18;3.70;;;2.55;;
47784;SDS011;35233;55.686;37.848;2023-05-07T07:11:44;3.30;;;2.40;;
47784;SDS011;35233;55.686;37.848;2023-05-07T07:14:13;2.55;;;2.15;;
47784;SDS011;35233;55.686;37.848;2023-05-07T07:16:42;2.67;;;2.30;;
47784;SDS011;35233;55.686;37.848;2023-05-07T07:19:14;2.70;;;2.10;;
47784;SDS011;35233;55.686;37.848;2023-05-07T07:25:11;3.83;;;2.50;;
47784;SDS011;35233;55.686;37.848;2023-05-07T07:27:45;4.00;;;2.20;;
47784;SDS011;35233;55.686;37.848;2023-05-07T07:34:13;4.45;;;2.42;;
47784;SDS011;35233;55.686;37.848;2023-05-07T07:46:14;8.15;;;4.30;;
47784;SDS011;35233;55.686;37.848;2023-05-07T07:48:40;9.20;;;4.50;;
47784;SDS011;35233;55.686;37.848;2023-05-07T07:51:05;6.70;;;3.90;;
47784;SDS011;35233;55.686;37.848;2023-05-07T07:53:31;8.77;;;4.25;;
47784;SDS011;35233;55.686;37.848;2023-05-07T07:55:57;8.20;;;3.95;;
47784;SDS011;35233;55.686;37.848;2023-05-07T07:58:22;7.15;;;3.90;;
47784;SDS011;35233;55.686;37.848;2023-05-07T08:00:52;6.95;;;3.70;;
47784;SDS011;35233;55.686;37.848;2023-05-07T08:03:20;4.80;;;3.10;;
47784;SDS011;35233;55.686;37.848;2023-05-07T08:05:46;6.05;;;3.55;;
47784;SDS011;35233;55.686;37.848;2023-05-07T08:08:11;4.35;;;2.85;;
47784;SDS011;35233;55.686;37.848;2023-05-07T08:10:37;10.88;;;3.67;;
47784;SDS011;35233;55.686;37.848;2023-05-07T08:13:04;4.93;;;3.20;;
47784;SDS011;35233;55.686;37.848;2023-05-07T08:15:30;5.60;;;3.70;;
47784;SDS011;35233;55.686;37.848;2023-05-07T08:17:56;5.57;;;3.38;;
47784;SDS011;35233;55.686;37.848;2023-05-07T08:20:23;7.70;;;3.33;;
47784;SDS011;35233;55.686;37.848;2023-05-07T08:22:48;5.93;;;3.42;;
47784;SDS011;35233;55.686;37.848;2023-05-07T08:25:14;6.25;;;3.30;;
47784;SDS011;35233;55.686;37.848;2023-05-07T08:27:39;7.60;;;3.42;;
47784;SDS011;35233;55.686;37.848;2023-05-07T08:30:05;4.90;;;3.20;;
47784;SDS011;35233;55.686;37.848;2023-05-07T08:32:31;5.13;;;3.00;;
47784;SDS011;35233;55.686;37.848;2023-05-07T08:34:57;5.45;;;3.08;;
47784;SDS011;35233;55.686;37.848;2023-05-07T08:37:25;4.63;;;3.30;;
47784;SDS011;35233;55.686;37.848;2023-05-07T08:39:50;4.88;;;2.90;;
47784;SDS011;35233;55.686;37.848;2023-05-07T08:42:16;4.30;;;2.75;;
47784;SDS011;35233;55.686;37.848;2023-05-07T08:44:43;3.67;;;2.70;;
47784;SDS011;35233;55.686;37.848;2023-05-07T08:47:11;3.47;;;2.65;;
47784;SDS011;35233;55.686;37.848;2023-05-07T08:49:37;4.45;;;2.72;;
47784;SDS011;35233;55.686;37.848;2023-05-07T08:52:03;3.65;;;2.65;;
47784;SDS011;35233;55.686;37.848;2023-05-07T08:54:29;3.92;;;2.60;;
47784;SDS011;35233;55.686;37.848;2023-05-07T08:56:56;5.28;;;2.80;;
47784;SDS011;35233;55.686;37.848;2023-05-07T08:59:22;3.42;;;2.67;;
47784;SDS011;35233;55.686;37.848;2023-05-07T09:01:47;4.05;;;2.40;;
47784;SDS011;35233;55.686;37.848;2023-05-07T09:04:13;3.38;;;2.28;;
47784;SDS011;35233;55.686;37.848;2023-05-07T09:06:38;3.72;;;2.40;;
47784;SDS011;35233;55.686;37.848;2023-05-07T09:09:07;3.38;;;2.45;;
47784;SDS011;35233;55.686;37.848;2023-05-07T09:11:32;4.53;;;2.25;;
47784;SDS011;35233;55.686;37.848;2023-05-07T09:13:58;4.03;;;2.50;;
47784;SDS011;35233;55.686;37.848;2023-05-07T09:16:28;3.15;;;2.13;;
47784;SDS011;35233;55.686;37.848;2023-05-07T09:18:56;2.90;;;2.10;;
47784;SDS011;35233;55.686;37.848;2023-05-07T09:21:23;3.55;;;2.50;;
47784;SDS011;35233;55.686;37.848;2023-05-07T09:23:52;2.80;;;2.28;;
47784;SDS011;35233;55.686;37.848;2023-05-07T09:26:22;2.55;;;2.20;;
47784;SDS011;35233;55.686;37.848;2023-05-07T09:28:49;2.83;;;2.17;;
47784;SDS011;35233;55.686;37.848;2023-05-07T09:31:14;2.38;;;2.15;;
47784;SDS011;35233;55.686;37.848;2023-05-07T09:33:40;2.63;;;2.20;;
47784;SDS011;35233;55.686;37.848;2023-05-07T09:36:06;3.25;;;2.30;;
47784;SDS011;35233;55.686;37.848;2023-05-07T09:38:34;2.83;;;2.05;;
47784;SDS011;35233;55.686;37.848;2023-05-07T09:41:07;3.20;;;2.28;;
47784;SDS011;35233;55.686;37.848;2023-05-07T09:43:34;2.08;;;1.88;;
47784;SDS011;35233;55.686;37.848;2023-05-07T09:46:07;2.75;;;1.90;;
47784;SDS011;35233;55.686;37.848;2023-05-07T09:48:41;2.55;;;1.80;;
47784;SDS011;35233;55.686;37.848;2023-05-07T09:53:58;3.10;;;2.13;;
47784;SDS011;35233;55.686;37.848;2023-05-07T09:56:29;3.70;;;2.20;;
47784;SDS011;35233;55.686;37.848;2023-05-07T09:58:56;2.05;;;1.85;;
47784;SDS011;35233;55.686;37.848;2023-05-07T10:01:24;2.63;;;1.80;;
47784;SDS011;35233;55.686;37.848;2023-05-07T10:03:50;2.60;;;2.15;;
47784;SDS011;35233;55.686;37.848;2023-05-07T10:06:17;2.03;;;1.83;;
47784;SDS011;35233;55.686;37.848;2023-05-07T10:08:45;2.78;;;1.98;;
47784;SDS011;35233;55.686;37.848;2023-05-07T10:11:15;2.22;;;1.80;;
47784;SDS011;35233;55.686;37.848;2023-05-07T10:13:41;2.50;;;2.10;;
47784;SDS011;35233;55.686;37.848;2023-05-07T10:16:08;2.42;;;1.90;;
47784;SDS011;35233;55.686;37.848;2023-05-07T10:18:34;2.65;;;1.98;;
47784;SDS011;35233;55.686;37.848;2023-05-07T10:21:05;2.63;;;2.13;;
47784;SDS011;35233;55.686;37.848;2023-05-07T10:23:33;3.28;;;2.05;;
47784;SDS011;35233;55.686;37.848;2023-05-07T10:26:03;2.55;;;2.00;;
47784;SDS011;35233;55.686;37.848;2023-05-07T10:28:30;2.45;;;1.98;;
47784;SDS011;35233;55.686;37.848;2023-05-07T10:33:53;2.47;;;2.08;;
47784;SDS011;35233;55.686;37.848;2023-05-07T10:36:21;2.60;;;2.00;;
47784;SDS011;35233;55.686;37.848;2023-05-07T10:38:48;2.72;;;2.00;;
47784;SDS011;35233;55.686;37.848;2023-05-07T10:41:14;2.30;;;1.77;;
47784;SDS011;35233;55.686;37.848;2023-05-07T10:43:42;2.72;;;2.33;;
47784;SDS011;35233;55.686;37.848;2023-05-07T10:51:25;2.45;;;1.90;;
47784;SDS011;35233;55.686;37.848;2023-05-07T10:56:39;2.63;;;1.95;;
47784;SDS011;35233;55.686;37.848;2023-05-07T11:01:55;2.80;;;2.42;;
47784;SDS011;35233;55.686;37.848;2023-05-07T11:04:22;2.10;;;1.90;;
47784;SDS011;35233;55.686;37.848;2023-05-07T11:17:32;4.25;;;2.08;;
47784;SDS011;35233;55.686;37.848;2023-05-07T11:20:01;3.08;;;1.98;;
47784;SDS011;35233;55.686;37.848;2023-05-07T11:25:04;4.35;;;2.00;;
47784;SDS011;35233;55.686;37.848;2023-05-07T11:27:33;2.30;;;1.98;;
47784;SDS011;35233;55.686;37.848;2023-05-07T11:29:59;2.88;;;1.80;;
47784;SDS011;35233;55.686;37.848;2023-05-07T11:32:29;2.63;;;2.00;;
47784;SDS011;35233;55.686;37.848;2023-05-07T11:34:59;2.00;;;1.80;;
47784;SDS011;35233;55.686;37.848;2023-05-07T11:37:25;3.25;;;1.90;;
47784;SDS011;35233;55.686;37.848;2023-05-07T11:40:02;2.35;;;2.10;;
47784;SDS011;35233;55.686;37.848;2023-05-07T11:42:36;2.55;;;2.00;;
47784;SDS011;35233;55.686;37.848;2023-05-07T11:45:03;2.83;;;2.00;;
47784;SDS011;35233;55.686;37.848;2023-05-07T11:47:30;2.88;;;1.90;;
47784;SDS011;35233;55.686;37.848;2023-05-07T11:49:56;2.67;;;2.20;;
47784;SDS011;35233;55.686;37.848;2023-05-07T11:52:23;2.33;;;2.00;;
47784;SDS011;35233;55.686;37.848;2023-05-07T11:57:20;2.80;;;2.20;;
47784;SDS011;35233;55.686;37.848;2023-05-07T11:59:46;2.83;;;1.98;;
47784;SDS011;35233;55.686;37.848;2023-05-07T12:02:16;3.40;;;1.92;;
47784;SDS011;35233;55.686;37.848;2023-05-07T12:04:43;3.33;;;2.40;;
47784;SDS011;35233;55.686;37.848;2023-05-07T12:07:12;2.72;;;2.10;;
47784;SDS011;35233;55.686;37.848;2023-05-07T12:09:44;2.78;;;2.13;;
47784;SDS011;35233;55.686;37.848;2023-05-07T12:12:11;2.85;;;2.10;;
47784;SDS011;35233;55.686;37.848;2023-05-07T12:14:40;2.97;;;2.28;;
47784;SDS011;35233;55.686;37.848;2023-05-07T12:17:09;3.00;;;2.05;;
47784;SDS011;35233;55.686;37.848;2023-05-07T12:19:39;2.85;;;2.33;;
47784;SDS011;35233;55.686;37.848;2023-05-07T12:22:09;2.50;;;2.00;;
47784;SDS011;35233;55.686;37.848;2023-05-07T12:24:45;3.75;;;2.47;;
47784;SDS011;35233;55.686;37.848;2023-05-07T12:27:12;2.75;;;2.13;;
47784;SDS011;35233;55.686;37.848;2023-05-07T12:29:38;2.67;;;2.10;;
47784;SDS011;35233;55.686;37.848;2023-05-07T12:32:06;2.35;;;1.88;;
47784;SDS011;35233;55.686;37.848;2023-05-07T12:34:34;2.75;;;2.00;;
47784;SDS011;35233;55.686;37.848;2023-05-07T12:37:03;2.70;;;2.10;;
47784;SDS011;35233;55.686;37.848;2023-05-07T12:39:28;3.40;;;2.20;;
47784;SDS011;35233;55.686;37.848;2023-05-07T12:41:54;3.45;;;2.20;;
47784;SDS011;35233;55.686;37.848;2023-05-07T12:44:24;3.95;;;2.08;;
47784;SDS011;35233;55.686;37.848;2023-05-07T12:46:56;2.63;;;2.20;;
47784;SDS011;35233;55.686;37.848;2023-05-07T12:49:23;3.20;;;2.20;;
47784;SDS011;35233;55.686;37.848;2023-05-07T12:51:48;2.22;;;1.80;;
47784;SDS011;35233;55.686;37.848;2023-05-07T12:54:33;2.45;;;2.05;;
47784;SDS011;35233;55.686;37.848;2023-05-07T12:57:05;3.28;;;2.10;;
47784;SDS011;35233;55.686;37.848;2023-05-07T12:59:33;4.15;;;2.25;;
47784;SDS011;35233;55.686;37.848;2023-05-07T13:02:00;2.30;;;2.10;;
47784;SDS011;35233;55.686;37.848;2023-05-07T13:04:25;3.17;;;2.13;;
47784;SDS011;35233;55.686;37.848;2023-05-07T13:06:51;2.65;;;2.10;;
47784;SDS011;35233;55.686;37.848;2023-05-07T13:09:16;2.88;;;1.95;;
47784;SDS011;35233;55.686;37.848;2023-05-07T13:11:42;2.13;;;1.92;;
47784;SDS011;35233;55.686;37.848;2023-05-07T13:14:07;2.15;;;1.95;;
47784;SDS011;35233;55.686;37.848;2023-05-07T13:16:33;2.60;;;2.10;;
47784;SDS011;35233;55.686;37.848;2023-05-07T13:18:58;2.47;;;2.10;;
47784;SDS011;35233;55.686;37.848;2023-05-07T13:21:24;2.85;;;2.17;;
47784;SDS011;35233;55.686;37.848;2023-05-07T13:23:49;3.20;;;2.28;;
47784;SDS011;35233;55.686;37.848;2023-05-07T13:26:18;2.22;;;1.90;;
47784;SDS011;35233;55.686;37.848;2023-05-07T13:28:43;2.95;;;2.30;;
47784;SDS011;35233;55.686;37.848;2023-05-07T13:31:09;2.17;;;1.92;;
47784;SDS011;35233;55.686;37.848;2023-05-07T13:33:37;2.53;;;1.88;;
47784;SDS011;35233;55.686;37.848;2023-05-07T13:36:03;2.15;;;1.85;;
47784;SDS011;35233;55.686;37.848;2023-05-07T13:38:30;3.20;;;2.20;;
47784;SDS011;35233;55.686;37.848;2023-05-07T13:40:56;2.67;;;2.10;;
47784;SDS011;35233;55.686;37.848;2023-05-07T13:43:21;2.92;;;2.22;;
47784;SDS011;35233;55.686;37.848;2023-05-07T13:45:47;2.15;;;1.95;;
47784;SDS011;35233;55.686;37.848;2023-05-07T13:48:12;2.50;;;2.08;;
47784;SDS011;35233;55.686;37.848;2023-05-07T13:50:37;2.40;;;2.10;;
47784;SDS011;35233;55.686;37.848;2023-05-07T13:53:03;2.38;;;1.95;;
47784;SDS011;35233;55.686;37.848;2023-05-07T13:55:31;2.45;;;1.90;;
47784;SDS011;35233;55.686;37.848;2023-05-07T13:57:57;2.30;;;2.10;;
47784;SDS011;35233;55.686;37.848;2023-05-07T14:00:24;2.47;;;1.95;;
47784;SDS011;35233;55.686;37.848;2023-05-07T14:02:51;3.25;;;2.40;;
47784;SDS011;35233;55.686;37.848;2023-05-07T14:05:17;4.88;;;2.45;;
47784;SDS011;35233;55.686;37.848;2023-05-07T14:07:43;2.17;;;1.98;;
47784;SDS011;35233;55.686;37.848;2023-05-07T14:10:08;4.47;;;2.40;;
47784;SDS011;35233;55.686;37.848;2023-05-07T14:12:36;3.58;;;1.92;;
47784;SDS011;35233;55.686;37.848;2023-05-07T14:15:01;3.85;;;2.10;;
47784;SDS011;35233;55.686;37.848;2023-05-07T14:17:27;3.95;;;2.13;;
47784;SDS011;35233;55.686;37.848;2023-05-07T14:19:52;3.00;;;2.13;;
47784;SDS011;35233;55.686;37.848;2023-05-07T14:22:22;2.20;;;2.00;;
47784;SDS011;35233;55.686;37.848;2023-05-07T14:24:48;2.83;;;2.13;;
47784;SDS011;35233;55.686;37.848;2023-05-07T14:27:14;4.45;;;2.50;;
47784;SDS011;35233;55.686;37.848;2023-05-07T14:29:40;2.85;;;2.35;;
47784;SDS011;35233;55.686;37.848;2023-05-07T14:32:06;4.75;;;2.58;;
47784;SDS011;35233;55.686;37.848;2023-05-07T14:34:31;3.22;;;2.40;;
47784;SDS011;35233;55.686;37.848;2023-05-07T14:36:57;3.35;;;2.42;;
47784;SDS011;35233;55.686;37.848;2023-05-07T14:39:23;3.47;;;2.20;;
47784;SDS011;35233;55.686;37.848;2023-05-07T14:41:48;5.05;;;2.50;;
47784;SDS011;35233;55.686;37.848;2023-05-07T14:44:14;2.70;;;2.20;;
47784;SDS011;35233;55.686;37.848;2023-05-07T14:46:39;3.33;;;2.22;;
47784;SDS011;35233;55.686;37.848;2023-05-07T14:49:05;2.63;;;2.13;;
47784;SDS011;35233;55.686;37.848;2023-05-07T14:51:31;5.32;;;2.55;;
47784;SDS011;35233;55.686;37.848;2023-05-07T14:53:58;4.60;;;2.28;;
47784;SDS011;35233;55.686;37.848;2023-05-07T14:56:23;3.28;;;2.30;;
47784;SDS011;35233;55.686;37.848;2023-05-07T14:58:49;3.50;;;2.38;;
47784;SDS011;35233;55.686;37.848;2023-05-07T15:01:15;3.03;;;2.30;;
47784;SDS011;35233;55.686;37.848;2023-05-07T15:03:40;4.75;;;2.22;;
47784;SDS011;35233;55.686;37.848;2023-05-07T15:06:06;3.72;;;2.28;;
47784;SDS011;35233;55.686;37.848;2023-05-07T15:08:31;4.25;;;2.35;;
47784;SDS011;35233;55.686;37.848;2023-05-07T15:10:57;4.07;;;2.45;;
47784;SDS011;35233;55.686;37.848;2023-05-07T15:13:22;3.05;;;2.38;;
47784;SDS011;35233;55.686;37.848;2023-05-07T15:15:48;3.20;;;2.47;;
47784;SDS011;35233;55.686;37.848;2023-05-07T15:18:14;2.60;;;2.35;;